Time;durP1;ratioP1;P1;durP2;ratioP2;P2;SDS_P1;SDS_P2;PMS_P1;PMS_P2;Temp;Humidity;BMP_temperature;BMP_pressure;BME280_temperature;BME280_humidity;BME280_pressure;Samples;Min_cycle;Max_cycle;Signal;HPM_P1;HPM_P2
2023/10/14 00:01:08;;;;;;;10.33;3.87;;;22.70;80.80;;;;;;5011130;28;20533;-68
2023/10/14 00:03:35;;;;;;;6.10;3.27;;;22.70;81.20;;;;;;5009669;28;20463;-67
2023/10/14 00:06:07;;;;;;;6.43;3.13;;;22.60;81.40;;;;;;5010851;28;20452;-68
2023/10/14 00:08:35;;;;;;;16.80;3.43;;;22.60;81.40;;;;;;5013244;28;20487;-69
2023/10/14 00:11:05;;;;;;;5.90;3.10;;;22.60;81.50;;;;;;5014600;28;20452;-68
2023/10/14 00:13:36;;;;;;;5.03;3.03;;;22.70;81.70;;;;;;5014324;28;20542;-67
2023/10/14 00:16:08;;;;;;;5.43;3.40;;;22.70;81.70;;;;;;5014459;28;20483;-68
2023/10/14 00:18:42;;;;;;;11.23;3.50;;;22.70;81.80;;;;;;5014488;28;20542;-67
2023/10/14 00:21:13;;;;;;;5.47;3.30;;;22.60;82.00;;;;;;5014792;28;20542;-67
2023/10/14 00:23:40;;;;;;;6.73;3.70;;;22.70;82.60;;;;;;5014394;28;20460;-67
2023/10/14 00:26:14;;;;;;;7.03;3.60;;;22.60;82.70;;;;;;5014307;28;20478;-67
2023/10/14 00:28:45;;;;;;;6.00;3.47;;;22.70;82.60;;;;;;5014363;28;20487;-67
2023/10/14 00:31:13;;;;;;;6.67;3.40;;;22.70;83.20;;;;;;5014210;28;20483;-67
2023/10/14 00:33:40;;;;;;;5.63;3.17;;;22.60;83.60;;;;;;5014205;28;20456;-67
2023/10/14 00:36:10;;;;;;;7.03;3.37;;;22.60;83.80;;;;;;5014306;28;20451;-67
2023/10/14 00:38:43;;;;;;;8.07;3.57;;;22.60;84.10;;;;;;5014177;28;20538;-67
2023/10/14 00:41:12;;;;;;;8.20;3.67;;;22.60;84.60;;;;;;5014148;28;20455;-67
2023/10/14 00:43:40;;;;;;;5.97;3.70;;;22.60;84.90;;;;;;5014055;28;20452;-67
2023/10/14 00:46:14;;;;;;;7.77;3.53;;;22.60;85.70;;;;;;5013964;28;20546;-67
2023/10/14 00:48:46;;;;;;;4.47;3.10;;;22.70;86.30;;;;;;5014039;28;20792;-67
2023/10/14 00:51:14;;;;;;;7.60;3.60;;;22.60;86.40;;;;;;5013744;28;20473;-67
2023/10/14 00:53:52;;;;;;;7.60;3.57;;;22.50;87.40;;;;;;5013754;28;20463;-67
2023/10/14 00:56:27;;;;;;;6.23;3.60;;;22.50;88.50;;;;;;5013653;28;20521;-67
2023/10/14 00:58:58;;;;;;;8.77;4.30;;;22.50;89.40;;;;;;5013909;28;20786;-67
2023/10/14 01:01:31;;;;;;;8.00;3.93;;;22.40;90.40;;;;;;5013875;28;20455;-67
2023/10/14 01:04:09;;;;;;;8.70;4.10;;;22.40;92.60;;;;;;5013514;28;20467;-68
2023/10/14 01:06:53;;;;;;;6.97;4.00;;;22.30;95.20;;;;;;5013985;28;20483;-67
2023/10/14 01:09:30;;;;;;;10.00;4.70;;;22.20;95.80;;;;;;5013273;28;20475;-67
2023/10/14 01:11:59;;;;;;;7.20;4.10;;;22.20;96.20;;;;;;5013388;28;20459;-67
2023/10/14 01:14:27;;;;;;;8.73;4.53;;;22.20;96.80;;;;;;5013306;28;20483;-67
2023/10/14 01:16:54;;;;;;;8.60;4.40;;;22.10;97.20;;;;;;5013431;28;20539;-67
2023/10/14 01:19:22;;;;;;;9.00;5.07;;;22.10;97.50;;;;;;5012287;28;20454;-67
2023/10/14 01:21:52;;;;;;;6.93;4.07;;;22.10;97.70;;;;;;5013205;28;20458;-67
2023/10/14 01:24:21;;;;;;;6.60;4.00;;;22.10;97.50;;;;;;5013200;28;20454;-67
2023/10/14 01:27:00;;;;;;;7.90;4.33;;;22.10;98.00;;;;;;5013214;28;20546;-68
2023/10/14 01:29:31;;;;;;;9.23;4.47;;;22.10;98.00;;;;;;5013298;28;20981;-67
2023/10/14 01:32:37;;;;;;;8.07;4.90;;;22.00;98.00;;;;;;5011739;28;20463;-67
2023/10/14 01:35:13;;;;;;;8.10;4.87;;;21.90;98.00;;;;;;5013009;28;20511;-67
2023/10/14 01:37:40;;;;;;;11.27;4.70;;;21.90;98.00;;;;;;5013007;28;20459;-67
2023/10/14 01:40:24;;;;;;;10.67;5.33;;;21.80;98.00;;;;;;5013153;28;20456;-67
2023/10/14 01:42:56;;;;;;;11.03;4.97;;;21.80;98.00;;;;;;5013844;28;20459;-67
2023/10/14 01:45:27;;;;;;;8.77;4.83;;;21.70;98.00;;;;;;5013928;28;20448;-67
2023/10/14 01:48:11;;;;;;;13.93;5.10;;;21.60;98.00;;;;;;5013091;28;20521;-67
2023/10/14 01:50:39;;;;;;;10.17;5.20;;;21.60;98.00;;;;;;5013650;28;20459;-66
2023/10/14 01:53:10;;;;;;;8.30;4.97;;;21.60;98.00;;;;;;5013596;28;20454;-67
2023/10/14 01:55:42;;;;;;;10.17;5.03;;;21.60;98.00;;;;;;5012884;28;20487;-67
2023/10/14 01:58:17;;;;;;;11.00;4.90;;;21.60;98.00;;;;;;5012668;28;20458;-67
2023/10/14 02:00:46;;;;;;;9.90;5.00;;;21.50;98.00;;;;;;5012720;28;20542;-67
2023/10/14 02:03:15;;;;;;;10.70;5.33;;;21.50;98.00;;;;;;5012392;28;20530;-67
2023/10/14 02:05:42;;;;;;;10.23;5.30;;;21.50;98.00;;;;;;5011435;28;20454;-67
2023/10/14 02:08:14;;;;;;;10.13;5.30;;;21.50;98.00;;;;;;5012368;28;20455;-67
2023/10/14 02:10:46;;;;;;;7.83;4.83;;;21.40;98.00;;;;;;5012781;28;20463;-67
2023/10/14 02:13:15;;;;;;;8.43;4.70;;;21.40;98.00;;;;;;5012639;28;21009;-67
2023/10/14 02:15:46;;;;;;;10.80;5.00;;;21.50;98.00;;;;;;5012717;28;20573;-67
2023/10/14 02:18:15;;;;;;;9.80;4.93;;;21.50;98.00;;;;;;5012565;28;20466;-67
2023/10/14 02:20:56;;;;;;;9.90;4.90;;;21.50;98.00;;;;;;5012452;28;20452;-67
2023/10/14 02:23:25;;;;;;;11.00;5.00;;;21.50;98.00;;;;;;5012208;28;20483;-67
2023/10/14 02:25:59;;;;;;;13.90;4.90;;;21.50;98.00;;;;;;5012203;28;20969;-67
2023/10/14 02:28:30;;;;;;;11.03;5.40;;;21.50;98.00;;;;;;5011966;28;20993;-67
2023/10/14 02:31:01;;;;;;;10.67;4.70;;;21.50;98.00;;;;;;5011928;28;20521;-67
2023/10/14 02:33:28;;;;;;;8.53;4.90;;;21.50;98.00;;;;;;5011918;28;20462;-67
2023/10/14 02:35:59;;;;;;;8.47;5.03;;;21.50;98.00;;;;;;5012136;28;21008;-67
2023/10/14 02:38:29;;;;;;;9.47;5.20;;;21.50;98.00;;;;;;5011780;28;20460;-67
2023/10/14 02:41:03;;;;;;;14.03;5.07;;;21.50;98.00;;;;;;5011912;28;20466;-67
2023/10/14 02:43:31;;;;;;;12.23;5.70;;;21.50;98.00;;;;;;5011928;28;20545;-67
2023/10/14 02:46:02;;;;;;;13.17;6.10;;;21.50;98.00;;;;;;5011995;28;20517;-67
2023/10/14 02:48:52;;;;;;;8.30;4.83;;;21.50;98.00;;;;;;5011992;28;20461;-67
2023/10/14 02:51:17;;;;;;;11.03;5.17;;;21.40;98.00;;;;;;5011493;28;20963;-67
2023/10/14 02:53:45;;;;;;;13.40;5.90;;;21.50;98.00;;;;;;5011911;28;20972;-67
2023/10/14 02:56:32;;;;;;;10.17;5.40;;;21.50;98.00;;;;;;5011545;28;20484;-67
2023/10/14 02:58:59;;;;;;;11.90;5.10;;;21.50;98.00;;;;;;5011736;28;20868;-68
2023/10/14 03:01:31;;;;;;;9.70;5.70;;;21.50;98.00;;;;;;5011483;28;20452;-67
2023/10/14 03:04:07;;;;;;;9.17;5.03;;;21.50;98.00;;;;;;5011541;28;20455;-67
2023/10/14 03:06:46;;;;;;;11.87;5.30;;;21.50;98.00;;;;;;5011790;28;20527;-67
2023/10/14 03:09:17;;;;;;;10.43;4.60;;;21.50;98.00;;;;;;5011575;28;21001;-67
2023/10/14 03:11:47;;;;;;;9.50;5.33;;;21.50;98.00;;;;;;5011544;28;20456;-67
2023/10/14 03:14:15;;;;;;;12.47;5.33;;;21.50;98.00;;;;;;5011329;28;20463;-67
2023/10/14 03:16:44;;;;;;;13.07;6.00;;;21.50;98.00;;;;;;5011277;28;20519;-67
2023/10/14 03:19:11;;;;;;;10.77;5.37;;;21.50;98.00;;;;;;5011540;28;20455;-67
2023/10/14 03:21:52;;;;;;;7.97;4.90;;;21.40;98.00;;;;;;5011447;28;20758;-67
2023/10/14 03:24:20;;;;;;;12.27;5.37;;;21.50;98.00;;;;;;5011331;28;20498;-67
2023/10/14 03:26:56;;;;;;;11.80;5.17;;;21.50;98.00;;;;;;5011367;28;20491;-67
2023/10/14 03:29:25;;;;;;;12.40;5.07;;;21.50;98.00;;;;;;5011214;28;20533;-67
2023/10/14 03:31:55;;;;;;;9.17;5.50;;;21.50;98.00;;;;;;5011643;28;20456;-67
2023/10/14 03:34:29;;;;;;;13.23;5.23;;;21.50;98.00;;;;;;5011251;28;20954;-67
2023/10/14 03:37:00;;;;;;;9.00;5.10;;;21.50;98.00;;;;;;5011410;28;20521;-68
2023/10/14 03:39:40;;;;;;;10.63;5.53;;;21.50;98.00;;;;;;5011189;28;20491;-67
2023/10/14 03:42:11;;;;;;;9.77;5.20;;;21.40;98.00;;;;;;5010610;28;20458;-67
2023/10/14 03:44:41;;;;;;;8.37;4.97;;;21.40;98.00;;;;;;5015147;28;20491;-67
2023/10/14 03:47:15;;;;;;;11.37;5.10;;;21.40;98.00;;;;;;5015117;28;20546;-67
2023/10/14 03:49:55;;;;;;;10.50;5.20;;;21.40;98.00;;;;;;5015018;28;20482;-67
2023/10/14 03:52:23;;;;;;;14.37;5.73;;;21.30;98.00;;;;;;5015270;28;20880;-67
2023/10/14 03:54:51;;;;;;;11.77;5.37;;;21.30;98.00;;;;;;5015266;28;20554;-67
2023/10/14 03:57:33;;;;;;;9.03;5.27;;;21.30;98.00;;;;;;5015212;28;20459;-68
2023/10/14 04:00:09;;;;;;;10.60;4.67;;;21.30;98.00;;;;;;5015023;28;21035;-67
2023/10/14 04:02:39;;;;;;;8.87;5.27;;;21.30;98.00;;;;;;5014954;28;20459;-67
2023/10/14 04:05:12;;;;;;;9.70;5.40;;;21.30;98.00;;;;;;5014852;28;20547;-67
2023/10/14 04:07:41;;;;;;;9.77;5.40;;;21.30;98.00;;;;;;5013453;28;20483;-67
2023/10/14 04:10:11;;;;;;;10.17;5.30;;;21.30;98.00;;;;;;5014668;28;21044;-67
2023/10/14 04:12:46;;;;;;;10.40;5.63;;;21.20;98.00;;;;;;5014793;28;20864;-67
2023/10/14 04:15:33;;;;;;;9.70;5.50;;;21.20;98.00;;;;;;5014395;28;20549;-67
2023/10/14 04:18:11;;;;;;;11.83;5.57;;;21.20;98.00;;;;;;5014525;28;20455;-67
2023/10/14 04:20:45;;;;;;;9.30;4.83;;;21.20;98.00;;;;;;5014511;28;20808;-67
2023/10/14 04:23:26;;;;;;;9.00;5.10;;;21.10;98.00;;;;;;5014429;28;20459;-67
2023/10/14 04:26:03;;;;;;;8.10;4.90;;;21.10;98.00;;;;;;5013298;28;20962;-67
2023/10/14 04:28:33;;;;;;;13.83;6.33;;;21.10;98.00;;;;;;5014128;28;20463;-67
2023/10/14 04:31:06;;;;;;;11.47;5.37;;;21.10;98.00;;;;;;5014185;28;20497;-67
2023/10/14 04:33:44;;;;;;;9.00;5.50;;;21.10;98.00;;;;;;5014180;28;20809;-67
2023/10/14 04:39:05;;;;;;;10.80;5.60;;;21.00;98.00;;;;;;4997074;28;20962;-67
2023/10/14 04:41:32;;;;;;;11.47;6.17;;;21.00;98.00;;;;;;5014074;28;20946;-68
2023/10/14 04:44:03;;;;;;;10.23;5.90;;;21.00;98.00;;;;;;5013988;28;20738;-68
2023/10/14 04:46:54;;;;;;;15.93;5.70;;;21.00;98.00;;;;;;5014259;28;20860;-67
2023/10/14 04:49:35;;;;;;;10.77;5.30;;;21.00;98.00;;;;;;5013717;28;20463;-67
2023/10/14 04:52:04;;;;;;;9.90;5.97;;;21.00;98.00;;;;;;5013917;28;20543;-67
2023/10/14 04:54:34;;;;;;;16.30;5.37;;;21.00;98.00;;;;;;5013678;28;20912;-67
2023/10/14 04:57:19;;;;;;;11.50;5.93;;;20.90;98.00;;;;;;5013576;28;20479;-67
2023/10/14 04:59:53;;;;;;;16.10;5.33;;;20.90;98.00;;;;;;5013922;28;20461;-67
2023/10/14 05:02:21;;;;;;;9.33;4.60;;;20.70;98.00;;;;;;5013505;28;20463;-67
2023/10/14 05:04:52;;;;;;;7.40;4.00;;;20.20;98.00;;;;;;5013599;28;20460;-67
2023/10/14 05:07:20;;;;;;;8.40;4.33;;;19.70;98.00;;;;;;5013498;28;20486;-66
2023/10/14 05:09:56;;;;;;;8.10;4.40;;;19.40;98.00;;;;;;5012235;28;20456;-67
2023/10/14 05:12:27;;;;;;;14.30;5.27;;;19.10;98.00;;;;;;5013311;28;20459;-67
2023/10/14 05:14:56;;;;;;;12.03;4.67;;;19.00;98.00;;;;;;5013580;28;20459;-67
2023/10/14 05:17:32;;;;;;;13.20;4.50;;;18.90;98.00;;;;;;5012961;28;20491;-68
2023/10/14 05:19:59;;;;;;;8.63;4.53;;;18.80;98.00;;;;;;5013429;28;20454;-67
2023/10/14 05:22:37;;;;;;;10.10;4.63;;;18.80;98.00;;;;;;5013243;28;20451;-67
2023/10/14 05:25:09;;;;;;;18.73;4.90;;;18.80;98.00;;;;;;5013383;28;20535;-67
2023/10/14 05:27:54;;;;;;;11.33;4.50;;;18.80;98.00;;;;;;5013167;28;20954;-67
2023/10/14 05:30:24;;;;;;;8.27;4.23;;;18.70;98.00;;;;;;5013123;28;21001;-67
2023/10/14 05:32:52;;;;;;;6.97;3.70;;;18.80;98.00;;;;;;5013141;28;20969;-67
2023/10/14 05:35:22;;;;;;;9.57;4.40;;;18.80;98.00;;;;;;5002524;28;20604;-67
2023/10/14 05:37:50;;;;;;;7.87;4.03;;;18.80;98.00;;;;;;4993527;28;20539;-67
2023/10/14 05:40:21;;;;;;;8.67;4.53;;;18.70;98.00;;;;;;4993514;28;21001;-67
2023/10/14 05:42:48;;;;;;;10.43;4.33;;;18.60;98.00;;;;;;4993800;28;20495;-67
2023/10/14 05:45:17;;;;;;;10.40;4.80;;;18.50;98.00;;;;;;4993750;28;20547;-66
2023/10/14 05:47:46;;;;;;;10.63;4.90;;;18.30;98.00;;;;;;4994064;28;20457;-67
2023/10/14 05:50:15;;;;;;;8.17;4.20;;;18.30;98.00;;;;;;4993700;28;20506;-68
2023/10/14 05:52:46;;;;;;;8.53;4.10;;;18.30;98.00;;;;;;4993741;28;20452;-67
2023/10/14 05:55:19;;;;;;;13.80;4.90;;;18.30;98.00;;;;;;4993542;28;20453;-67
2023/10/14 05:57:47;;;;;;;9.57;4.80;;;18.30;98.00;;;;;;4993580;28;20485;-64
2023/10/14 06:00:22;;;;;;;7.70;4.10;;;18.20;98.00;;;;;;4994142;28;20460;-64
2023/10/14 06:02:54;;;;;;;6.77;3.97;;;18.30;98.00;;;;;;4994252;28;20874;-63
2023/10/14 06:05:22;;;;;;;10.27;4.00;;;18.50;98.00;;;;;;4993852;28;20463;-63
2023/10/14 06:07:49;;;;;;;9.30;4.20;;;18.60;98.00;;;;;;4993585;28;20465;-63
2023/10/14 06:10:22;;;;;;;7.60;4.60;;;18.60;98.00;;;;;;4993653;28;20449;-63
2023/10/14 06:12:53;;;;;;;10.43;5.10;;;18.60;98.00;;;;;;4993805;28;20487;-64
2023/10/14 06:15:21;;;;;;;7.63;4.13;;;18.60;98.00;;;;;;4993657;28;20460;-64
2023/10/14 06:17:50;;;;;;;8.60;4.60;;;18.50;98.00;;;;;;4993304;28;20495;-64
2023/10/14 06:20:22;;;;;;;9.53;4.00;;;18.60;98.00;;;;;;4993499;28;20510;-63
2023/10/14 06:22:50;;;;;;;8.87;4.30;;;18.60;98.00;;;;;;4992080;28;20465;-64
2023/10/14 06:25:17;;;;;;;9.30;4.67;;;18.60;98.00;;;;;;4993430;28;20452;-64
2023/10/14 06:27:46;;;;;;;8.23;4.30;;;18.60;98.00;;;;;;4993109;28;20456;-64
2023/10/14 06:30:20;;;;;;;14.93;5.30;;;18.60;98.00;;;;;;4993380;28;20452;-64
2023/10/14 06:32:49;;;;;;;10.07;4.90;;;18.50;98.00;;;;;;4993424;28;20454;-64
2023/10/14 06:35:19;;;;;;;7.93;4.00;;;18.50;98.00;;;;;;4993190;28;20864;-64
2023/10/14 06:37:47;;;;;;;8.63;4.50;;;18.70;98.00;;;;;;4991785;28;20488;-64
2023/10/14 06:40:19;;;;;;;8.83;3.80;;;18.70;98.00;;;;;;4993013;28;20455;-63
2023/10/14 06:42:49;;;;;;;9.57;3.90;;;18.70;98.00;;;;;;4993004;28;20456;-64
2023/10/14 06:45:20;;;;;;;7.30;3.90;;;18.80;98.00;;;;;;4992965;28;20985;-64
2023/10/14 06:47:50;;;;;;;8.03;3.97;;;19.10;98.00;;;;;;4993190;28;20452;-64
2023/10/14 06:50:23;;;;;;;9.23;4.80;;;19.20;98.00;;;;;;4992849;28;20460;-64
2023/10/14 06:52:53;;;;;;;8.83;4.57;;;19.20;98.00;;;;;;4993007;28;20488;-63
2023/10/14 06:55:22;;;;;;;11.07;5.50;;;19.30;98.00;;;;;;4992690;28;20507;-64
2023/10/14 06:57:53;;;;;;;8.37;4.37;;;19.30;98.00;;;;;;4992604;28;20527;-64
2023/10/14 07:00:29;;;;;;;11.27;4.80;;;19.30;98.00;;;;;;4992756;28;20467;-64
2023/10/14 07:03:00;;;;;;;9.90;4.60;;;19.40;98.00;;;;;;4992005;28;20465;-63
2023/10/14 07:05:30;;;;;;;9.57;4.70;;;19.40;98.00;;;;;;4992961;28;20456;-64
2023/10/14 07:07:58;;;;;;;9.63;4.10;;;19.40;98.00;;;;;;4992728;28;20448;-64
2023/10/14 07:10:32;;;;;;;9.10;4.30;;;19.30;98.00;;;;;;4992284;28;20489;-64
2023/10/14 07:13:00;;;;;;;9.13;4.93;;;19.20;98.00;;;;;;4991955;28;20456;-64
2023/10/14 07:15:29;;;;;;;13.10;4.83;;;19.10;98.00;;;;;;4992224;28;20536;-64
2023/10/14 07:17:57;;;;;;;9.00;4.50;;;18.90;98.00;;;;;;4993589;28;20494;-64
2023/10/14 07:20:29;;;;;;;10.63;4.80;;;18.80;98.00;;;;;;4996093;28;20455;-65
2023/10/14 07:22:58;;;;;;;10.70;4.80;;;19.00;98.00;;;;;;4996086;28;20476;-63
2023/10/14 07:25:26;;;;;;;10.20;4.70;;;19.00;98.00;;;;;;4995978;28;20499;-64
2023/10/14 07:27:59;;;;;;;8.90;4.60;;;18.90;98.00;;;;;;4995932;28;20472;-64
2023/10/14 07:30:27;;;;;;;8.90;4.50;;;18.90;98.00;;;;;;4995793;28;20452;-64
2023/10/14 07:32:56;;;;;;;10.07;4.33;;;19.10;98.00;;;;;;4995887;28;21013;-64
2023/10/14 07:35:24;;;;;;;7.40;3.93;;;19.30;98.00;;;;;;4995591;28;20460;-64
2023/10/14 07:37:52;;;;;;;14.30;4.40;;;19.40;98.00;;;;;;4995521;28;20484;-63
2023/10/14 07:40:24;;;;;;;10.43;4.60;;;19.50;98.00;;;;;;4994307;28;20456;-63
2023/10/14 07:42:54;;;;;;;13.33;4.57;;;19.50;98.00;;;;;;4995286;28;20463;-63
2023/10/14 07:45:28;;;;;;;10.20;4.53;;;19.50;98.00;;;;;;4994275;28;20599;-64
2023/10/14 07:48:08;;;;;;;6.20;3.60;;;19.60;98.00;;;;;;4995451;28;20468;-64
2023/10/14 07:50:37;;;;;;;9.77;4.17;;;19.60;98.00;;;;;;4995244;28;20459;-64
2023/10/14 07:53:12;;;;;;;6.57;3.90;;;19.80;98.00;;;;;;4994101;28;20459;-63
2023/10/14 07:55:42;;;;;;;8.80;3.90;;;19.90;98.00;;;;;;4995787;28;20444;-63
2023/10/14 07:58:10;;;;;;;7.60;4.30;;;19.80;98.00;;;;;;4995659;28;20837;-63
2023/10/14 08:00:43;;;;;;;8.37;3.87;;;19.90;98.00;;;;;;4995751;28;20888;-64
2023/10/14 08:03:14;;;;;;;5.83;3.57;;;19.90;98.00;;;;;;4995546;28;20539;-63
2023/10/14 08:05:42;;;;;;;5.50;3.33;;;20.00;98.00;;;;;;4995552;28;20949;-64
2023/10/14 08:08:10;;;;;;;14.03;4.70;;;20.00;98.00;;;;;;4995599;28;20444;-64
2023/10/14 08:10:41;;;;;;;7.47;3.63;;;20.20;98.00;;;;;;4994898;28;20448;-64
2023/10/14 08:13:10;;;;;;;12.40;3.47;;;20.40;98.00;;;;;;4995029;28;20469;-64
2023/10/14 08:15:37;;;;;;;8.00;3.53;;;20.50;98.00;;;;;;4995563;28;20448;-64
2023/10/14 08:18:06;;;;;;;5.73;2.97;;;20.50;98.00;;;;;;4993905;28;20527;-64
2023/10/14 08:20:33;;;;;;;7.80;3.40;;;20.60;98.00;;;;;;4994541;28;20452;-64
2023/10/14 08:23:00;;;;;;;5.60;3.47;;;20.60;98.00;;;;;;4995439;28;20463;-63
2023/10/14 08:25:30;;;;;;;7.50;3.70;;;20.50;98.00;;;;;;4995318;28;20445;-64
2023/10/14 08:27:57;;;;;;;7.87;3.27;;;20.40;98.00;;;;;;4994816;28;20452;-64
2023/10/14 08:30:26;;;;;;;9.87;3.53;;;20.20;98.00;;;;;;4995338;28;20539;-64
2023/10/14 08:32:53;;;;;;;6.93;3.20;;;20.20;98.00;;;;;;4994822;28;20795;-64
2023/10/14 08:35:27;;;;;;;6.30;3.20;;;20.20;98.00;;;;;;4994726;28;20547;-64
2023/10/14 08:37:57;;;;;;;6.63;3.17;;;20.30;98.00;;;;;;5010300;28;20533;-64
2023/10/14 08:40:30;;;;;;;5.67;3.20;;;20.30;98.00;;;;;;5013814;28;20967;-64
2023/10/14 08:43:05;;;;;;;7.90;3.60;;;20.20;98.00;;;;;;5014607;28;20451;-69
2023/10/14 08:45:38;;;;;;;7.27;3.33;;;20.10;98.00;;;;;;5014669;28;20455;-68
2023/10/14 08:48:08;;;;;;;5.37;3.10;;;20.20;98.00;;;;;;5014543;28;20452;-68
2023/10/14 08:50:39;;;;;;;4.97;2.90;;;20.40;98.00;;;;;;5013117;28;20467;-70
2023/10/14 08:53:07;;;;;;;9.50;3.00;;;20.30;98.00;;;;;;5012698;28;20465;-69
2023/10/14 08:55:36;;;;;;;7.07;2.27;;;20.30;98.00;;;;;;5014423;28;20875;-64
2023/10/14 08:58:05;;;;;;;4.50;3.00;;;20.30;98.00;;;;;;5013624;28;20487;-64
2023/10/14 09:00:36;;;;;;;6.63;2.80;;;20.30;98.00;;;;;;5014479;28;20444;-64
2023/10/14 09:03:05;;;;;;;3.90;2.60;;;20.30;98.00;;;;;;5014337;28;20529;-64
2023/10/14 09:05:32;;;;;;;6.90;2.73;;;20.40;98.00;;;;;;5013974;28;20448;-65
2023/10/14 09:08:00;;;;;;;7.57;2.73;;;20.50;98.00;;;;;;5014245;28;20455;-64
2023/10/14 09:10:28;;;;;;;5.07;3.30;;;20.60;98.00;;;;;;5013721;28;20448;-63
2023/10/14 09:13:04;;;;;;;7.83;3.57;;;20.70;98.00;;;;;;5013887;28;20813;-64
2023/10/14 09:15:33;;;;;;;11.30;4.27;;;20.80;98.00;;;;;;5014239;28;20459;-64
2023/10/14 09:18:01;;;;;;;8.03;4.03;;;20.90;98.00;;;;;;5013927;28;21219;-64
2023/10/14 09:20:33;;;;;;;9.77;4.40;;;21.10;98.00;;;;;;5012885;28;20475;-64
2023/10/14 09:23:18;;;;;;;10.30;4.23;;;21.20;98.00;;;;;;5014012;28;20849;-64
2023/10/14 09:25:49;;;;;;;7.23;3.60;;;21.20;98.00;;;;;;5013848;28;20867;-65
2023/10/14 09:28:19;;;;;;;8.20;3.90;;;21.20;98.00;;;;;;5013743;28;20455;-65
2023/10/14 09:30:50;;;;;;;9.43;3.97;;;21.10;98.00;;;;;;5014007;28;20542;-64
2023/10/14 09:33:27;;;;;;;7.73;2.97;;;21.00;98.00;;;;;;5013705;28;20491;-64
2023/10/14 09:35:58;;;;;;;2.50;1.77;;;21.00;98.00;;;;;;5013750;28;20459;-64
2023/10/14 09:38:28;;;;;;;1.60;1.40;;;20.40;98.00;;;;;;5013464;28;20495;-64
2023/10/14 09:40:57;;;;;;;1.73;1.50;;;19.90;98.00;;;;;;5012969;28;20452;-63
2023/10/14 09:43:24;;;;;;;1.97;1.53;;;19.40;98.00;;;;;;5012408;28;20823;-63
2023/10/14 09:45:56;;;;;;;1.50;1.43;;;19.00;98.00;;;;;;5013495;28;20456;-64
2023/10/14 09:48:29;;;;;;;1.73;1.40;;;18.30;98.00;;;;;;5013602;28;20448;-64
2023/10/14 09:50:56;;;;;;;1.57;1.37;;;17.60;98.00;;;;;;5013398;28;20980;-64
2023/10/14 09:53:28;;;;;;;2.80;1.57;;;17.40;98.00;;;;;;5013372;28;20459;-63
2023/10/14 09:55:57;;;;;;;1.57;1.30;;;17.40;98.00;;;;;;5013455;28;20451;-63
2023/10/14 09:58:26;;;;;;;1.83;1.50;;;17.10;98.00;;;;;;5013276;28;20488;-64
2023/10/14 10:00:53;;;;;;;1.83;1.57;;;17.10;98.00;;;;;;5013370;28;20856;-64
2023/10/14 10:03:23;;;;;;;3.00;1.50;;;17.00;98.00;;;;;;5013202;28;20834;-64
2023/10/14 10:06:10;;;;;;;1.53;1.47;;;17.10;98.00;;;;;;5013293;28;20456;-65
2023/10/14 10:09:09;;;;;;;1.90;1.50;;;17.20;98.00;;;;;;5013111;28;20459;-64
2023/10/14 10:11:38;;;;;;;1.90;1.67;;;17.10;98.00;;;;;;5008200;28;20455;-64
2023/10/14 10:14:12;;;;;;;2.07;1.60;;;17.00;98.00;;;;;;5012543;28;20452;-64
2023/10/14 10:16:42;;;;;;;1.90;1.60;;;16.70;98.00;;;;;;5012360;28;20455;-64
2023/10/14 10:19:10;;;;;;;2.80;1.70;;;16.70;98.00;;;;;;5012179;28;20456;-64
2023/10/14 10:21:43;;;;;;;2.53;1.67;;;16.80;98.00;;;;;;5012182;28;20452;-66
2023/10/14 10:24:19;;;;;;;2.20;1.80;;;16.70;98.00;;;;;;5012333;28;20797;-65
2023/10/14 10:27:05;;;;;;;1.67;1.63;;;16.80;98.00;;;;;;5012801;28;20468;-64
2023/10/14 10:29:33;;;;;;;4.90;1.63;;;16.90;98.00;;;;;;5013008;28;20451;-65
2023/10/14 10:32:09;;;;;;;1.77;1.47;;;16.90;98.00;;;;;;5012773;28;20435;-65
2023/10/14 10:35:16;;;;;;;2.50;1.60;;;17.10;98.00;;;;;;4985722;28;20959;-65
2023/10/14 10:37:52;;;;;;;2.10;1.60;;;17.30;98.00;;;;;;5009051;28;20489;-65
2023/10/14 10:40:26;;;;;;;2.23;1.70;;;17.10;98.00;;;;;;5012270;28;20455;-64
2023/10/14 10:42:55;;;;;;;2.27;1.67;;;17.10;98.00;;;;;;5012633;28;20960;-64
2023/10/14 10:45:23;;;;;;;2.63;1.97;;;17.00;98.00;;;;;;5012582;28;20451;-64
2023/10/14 10:47:54;;;;;;;3.30;2.23;;;17.10;98.00;;;;;;5012424;28;20552;-65
2023/10/14 10:50:24;;;;;;;1.70;1.50;;;17.10;98.00;;;;;;5009906;28;20483;-65
2023/10/14 10:53:20;;;;;;;4.03;1.90;;;17.20;98.00;;;;;;5011670;28;20861;-65
2023/10/14 10:55:48;;;;;;;2.07;1.80;;;17.30;98.00;;;;;;5011173;28;20459;-64
2023/10/14 10:58:16;;;;;;;2.53;1.83;;;17.20;98.00;;;;;;5011545;28;20486;-65
2023/10/14 11:00:45;;;;;;;2.40;1.97;;;17.20;98.00;;;;;;5011355;28;20462;-65
2023/10/14 11:03:14;;;;;;;2.60;1.83;;;17.30;98.00;;;;;;5012144;28;20494;-66
2023/10/14 11:05:42;;;;;;;3.17;2.10;;;17.40;98.00;;;;;;5012168;28;20494;-65
2023/10/14 11:08:11;;;;;;;2.57;1.80;;;17.50;98.00;;;;;;5012075;28;20462;-65
2023/10/14 11:10:42;;;;;;;4.97;2.13;;;17.70;98.00;;;;;;5012452;28;20478;-65
2023/10/14 11:13:11;;;;;;;2.90;2.00;;;17.80;98.00;;;;;;5012081;28;20463;-65
2023/10/14 11:15:40;;;;;;;2.90;2.00;;;17.70;98.00;;;;;;5012482;28;20456;-65
2023/10/14 11:18:09;;;;;;;2.03;1.70;;;17.60;98.00;;;;;;5011906;28;20479;-65
2023/10/14 11:20:43;;;;;;;2.40;1.80;;;17.50;98.00;;;;;;5012008;28;20513;-66
2023/10/14 11:23:12;;;;;;;2.30;1.63;;;17.50;98.00;;;;;;5012056;28;20538;-66
2023/10/14 11:25:41;;;;;;;2.37;1.70;;;17.50;98.00;;;;;;4994725;28;20459;-64
2023/10/14 11:28:14;;;;;;;3.17;1.80;;;17.40;98.00;;;;;;5011977;28;20514;-65
2023/10/14 11:30:42;;;;;;;1.97;1.60;;;17.30;98.00;;;;;;5012185;28;20518;-65
2023/10/14 11:33:14;;;;;;;2.30;1.70;;;17.20;98.00;;;;;;5011760;28;20487;-65
2023/10/14 11:35:41;;;;;;;2.37;1.70;;;17.00;98.00;;;;;;5011830;28;20812;-65
2023/10/14 11:38:13;;;;;;;3.00;1.90;;;17.00;98.00;;;;;;5011790;28;20483;-65
2023/10/14 11:40:42;;;;;;;2.00;1.70;;;17.10;98.00;;;;;;5011834;28;20456;-65
2023/10/14 11:43:11;;;;;;;1.80;1.60;;;17.00;98.00;;;;;;5012086;28;20464;-65
2023/10/14 11:45:43;;;;;;;2.00;1.80;;;17.10;98.00;;;;;;5012165;28;20489;-65
2023/10/14 11:48:22;;;;;;;3.10;2.00;;;17.10;98.00;;;;;;5012153;28;20847;-65
2023/10/14 11:50:52;;;;;;;2.67;1.87;;;17.10;98.00;;;;;;5011964;28;20463;-64
2023/10/14 11:53:27;;;;;;;2.73;2.00;;;17.10;98.00;;;;;;5011955;28;20834;-65
2023/10/14 11:55:59;;;;;;;4.03;1.80;;;17.10;98.00;;;;;;5012066;28;20478;-65
2023/10/14 11:58:28;;;;;;;2.43;1.90;;;17.10;98.00;;;;;;5011809;28;20519;-65
2023/10/14 12:00:56;;;;;;;3.17;2.00;;;17.10;98.00;;;;;;5010807;28;20443;-66
2023/10/14 12:03:25;;;;;;;2.17;1.63;;;17.00;98.00;;;;;;5011539;28;20585;-65
2023/10/14 12:05:57;;;;;;;2.80;1.83;;;16.90;98.00;;;;;;4994582;28;20511;-65
2023/10/14 12:08:26;;;;;;;3.67;1.80;;;16.90;98.00;;;;;;4995716;28;20965;-65
2023/10/14 12:10:54;;;;;;;2.50;1.80;;;16.90;98.00;;;;;;4996064;28;20456;-65
2023/10/14 12:13:21;;;;;;;3.07;1.87;;;16.90;98.00;;;;;;4995786;28;20452;-65
2023/10/14 12:15:49;;;;;;;2.23;1.73;;;16.90;98.00;;;;;;5214294;23;20893;-64
2023/10/14 12:18:17;;;;;;;3.50;2.27;;;16.90;98.00;;;;;;5013915;28;21012;-66
2023/10/14 12:20:46;;;;;;;2.77;2.10;;;17.10;98.00;;;;;;5014791;28;20463;-67
2023/10/14 12:23:13;;;;;;;2.40;1.90;;;17.10;98.00;;;;;;5014303;28;20474;-67
2023/10/14 12:25:42;;;;;;;2.17;1.67;;;17.40;98.00;;;;;;5014897;28;20542;-67
2023/10/14 12:28:09;;;;;;;3.40;1.87;;;17.70;98.00;;;;;;5013392;28;20466;-67
2023/10/14 12:30:41;;;;;;;2.50;1.93;;;17.90;98.00;;;;;;5014604;28;20452;-67
2023/10/14 12:33:08;;;;;;;2.53;1.80;;;17.90;98.00;;;;;;5014640;28;20454;-64
2023/10/14 12:35:39;;;;;;;1.90;1.60;;;17.70;98.00;;;;;;5014790;28;20534;-64
2023/10/14 12:38:11;;;;;;;3.80;1.60;;;17.00;98.00;;;;;;5014647;28;20541;-64
2023/10/14 12:40:39;;;;;;;2.93;1.83;;;16.60;98.00;;;;;;5014769;28;20451;-64
2023/10/14 12:43:09;;;;;;;3.57;1.80;;;16.50;98.00;;;;;;5014677;28;21025;-65
2023/10/14 12:45:38;;;;;;;1.77;1.67;;;16.30;98.00;;;;;;5014702;28;20451;-65
2023/10/14 12:48:10;;;;;;;2.30;1.90;;;16.10;98.00;;;;;;5014509;28;20452;-64
2023/10/14 12:50:40;;;;;;;2.90;1.67;;;16.00;98.00;;;;;;5005975;28;20456;-64
2023/10/14 12:53:08;;;;;;;2.53;1.70;;;15.80;98.00;;;;;;5012926;28;20459;-64
2023/10/14 12:55:36;;;;;;;1.77;1.50;;;15.90;98.00;;;;;;5014325;28;20514;-64
2023/10/14 12:58:04;;;;;;;2.43;1.70;;;15.90;98.00;;;;;;5014228;28;20488;-63
2023/10/14 13:00:32;;;;;;;1.80;1.40;;;16.00;98.00;;;;;;5014113;28;20467;-65
2023/10/14 13:03:00;;;;;;;1.60;1.50;;;16.10;98.00;;;;;;5014188;28;20949;-64
2023/10/14 13:05:29;;;;;;;2.53;1.70;;;16.10;98.00;;;;;;5014055;28;20467;-65
2023/10/14 13:07:57;;;;;;;1.73;1.40;;;16.00;98.00;;;;;;5014125;28;20940;-64